Antonia, Louisiana
Current Conditions -  °F | °C
As of 9:53 AM on Monday 22 Dec 2014 (Local Time) from KESF Reporting Station
Overcast Overcast  
Wind Chill: 54°   Ceiling: 200
Heat Index: 54°   Visibility: 10mi
Dew Point: 54°   Wind: 3mph
Humidity: 100%   Direction: 180°S
Pressure: 29.79"   Gusts: NA
Location:  31.538°N, 92.3799°W
Report Text: KESF 221553Z AUTO 18003KT 10SM OVC002 12/12 A2979 RMK AO2 SLP087 T01220122 $
Loading
Personal Weather Stations






























Interactive Weather Map New forecast layout! Learn more

10-Day Weather Forecast

Advertisements
Track Severe Weather on mobile